createdAt,value
2022-08-10T00:00:33.333Z,81.85
2022-08-10T00:10:42.148Z,83.06
2022-08-10T00:20:46.662Z,83.21
2022-08-10T00:30:50.104Z,82.73
2022-08-10T00:40:56.309Z,82.47
2022-08-10T00:51:10.980Z,83.36
2022-08-10T01:02:08.499Z,84.16
2022-08-10T01:12:37.658Z,85.14
2022-08-10T01:23:13.537Z,84.00
2022-08-10T01:34:02.053Z,85.28
2022-08-10T01:56:25.729Z,86.22
2022-08-10T02:06:31.234Z,85.82
2022-08-10T02:16:47.148Z,85.82
2022-08-10T02:26:56.395Z,86.79
2022-08-10T02:37:10.582Z,86.36
2022-08-10T02:47:53.313Z,86.98
2022-08-10T02:58:17.036Z,86.41
2022-08-10T03:08:30.028Z,86.37
2022-08-10T03:18:50.310Z,87.69
2022-08-10T03:28:56.281Z,87.42
2022-08-10T03:39:05.432Z,87.86
2022-08-10T03:49:15.126Z,88.10
2022-08-10T03:59:33.210Z,88.49
2022-08-10T04:09:54.731Z,88.65
2022-08-10T04:20:04.003Z,88.86
2022-08-10T04:30:09.593Z,89.26
2022-08-10T04:40:33.293Z,90.32
2022-08-10T04:50:50.363Z,91.79
2022-08-10T05:01:11.312Z,93.56
2022-08-10T05:11:23.778Z,93.66
2022-08-10T05:22:02.505Z,93.00
2022-08-10T05:43:48.902Z,89.48
2022-08-10T05:54:19.433Z,84.59
2022-08-10T06:17:20.316Z,81.91
2022-08-10T06:40:08.575Z,78.76
2022-08-10T06:51:30.373Z,77.47
2022-08-10T07:03:35.968Z,76.99
2022-08-10T07:14:16.046Z,75.28
2022-08-10T07:24:23.508Z,74.94
2022-08-10T07:34:48.809Z,72.53
2022-08-10T08:41:58.913Z,62.54
2022-08-10T08:53:22.437Z,61.73
2022-08-10T09:15:41.568Z,60.39
2022-08-10T09:25:55.661Z,60.37
2022-08-10T09:36:32.911Z,60.60
2022-08-10T09:47:19.883Z,58.18
2022-08-10T09:57:49.041Z,58.29
2022-08-10T10:08:42.204Z,57.14
2022-08-10T10:19:53.211Z,56.97
2022-08-10T10:41:18.374Z,54.17
2022-08-10T10:51:33.218Z,52.68
2022-08-10T11:02:06.190Z,51.67
2022-08-10T11:12:51.682Z,52.35
2022-08-10T11:23:33.642Z,51.75
2022-08-10T11:35:34.599Z,52.06
2022-08-10T11:46:28.000Z,51.76
2022-08-10T11:57:02.575Z,50.76
2022-08-10T12:41:02.828Z,49.99
2022-08-10T13:13:53.554Z,46.98
2022-08-10T13:24:08.468Z,46.21
2022-08-10T13:34:42.611Z,47.49
2022-08-10T13:45:33.393Z,48.54
2022-08-10T13:55:46.047Z,48.52
2022-08-10T14:06:04.558Z,48.76
2022-08-10T14:17:30.250Z,48.17
2022-08-10T14:28:02.461Z,47.57
2022-08-10T14:39:16.603Z,47.43
2022-08-10T14:51:43.932Z,45.13
2022-08-10T15:02:57.931Z,44.58
2022-08-10T15:25:19.453Z,47.68
2022-08-10T16:07:53.441Z,47.66
2022-08-10T16:57:25.406Z,50.67
2022-08-10T17:17:48.145Z,52.99
2022-08-10T18:40:04.071Z,62.73
2022-08-10T18:51:28.365Z,64.00
2022-08-10T19:02:59.872Z,64.78
2022-08-10T19:13:50.796Z,66.19
2022-08-10T19:26:39.395Z,67.48
2022-08-10T19:38:00.116Z,68.25
2022-08-10T19:49:23.221Z,69.03
2022-08-10T20:00:37.063Z,69.97
2022-08-10T20:11:57.082Z,71.06
2022-08-10T20:46:08.765Z,72.95
2022-08-10T20:58:09.706Z,73.65
2022-08-10T21:32:50.961Z,75.94
2022-08-10T22:33:29.502Z,78.30
2022-08-10T22:55:42.622Z,79.91
2022-08-10T23:06:39.378Z,80.49
2022-08-10T23:18:01.165Z,81.06
2022-08-10T23:28:58.312Z,81.21
2022-08-10T23:39:25.394Z,81.92
